Time;durP1;ratioP1;P1;durP2;ratioP2;P2;SDS_P1;SDS_P2;PMS_P1;PMS_P2;Temp;Humidity;BMP_temperature;BMP_pressure;BME280_temperature;BME280_humidity;BME280_pressure;Samples;Min_cycle;Max_cycle;Signal;HPM_P1;HPM_P2
2022/09/01 00:03:23;;;;;;;2.42;2.15;;;;;;;;;;10377872;28;20078;-61
2022/09/01 00:08:24;;;;;;;3.22;2.13;;;;;;;;;;10372930;28;20057;-61
2022/09/01 00:13:24;;;;;;;2.00;1.90;;;;;;;;;;10369925;28;20026;-61
2022/09/01 00:18:26;;;;;;;3.78;2.10;;;;;;;;;;10376811;28;20253;-62
2022/09/01 00:23:27;;;;;;;10.40;2.10;;;;;;;;;;10388971;28;20496;-62
2022/09/01 00:28:28;;;;;;;5.07;2.03;;;;;;;;;;10391214;28;20101;-63
2022/09/01 00:33:28;;;;;;;4.63;1.50;;;;;;;;;;10370350;28;20489;-62
2022/09/01 00:38:29;;;;;;;5.53;1.90;;;;;;;;;;10376806;28;20025;-62
2022/09/01 00:43:40;;;;;;;7.75;1.75;;;;;;;;;;10375557;28;20029;-62
2022/09/01 00:48:41;;;;;;;2.95;1.73;;;;;;;;;;10359670;28;20125;-62
2022/09/01 00:53:42;;;;;;;2.08;1.92;;;;;;;;;;10366960;28;20029;-63
2022/09/01 00:58:44;;;;;;;6.70;1.83;;;;;;;;;;10353392;28;20034;-62
2022/09/01 01:03:45;;;;;;;2.10;1.90;;;;;;;;;;10369122;28;20464;-63
2022/09/01 01:08:55;;;;;;;2.83;1.83;;;;;;;;;;10385272;28;20053;-63
2022/09/01 01:13:59;;;;;;;7.97;2.17;;;;;;;;;;10346185;28;20061;-62
2022/09/01 01:19:00;;;;;;;3.70;1.80;;;;;;;;;;10367684;28;20363;-63
2022/09/01 01:24:18;;;;;;;3.15;2.05;;;;;;;;;;10367676;28;20033;-62
2022/09/01 01:29:19;;;;;;;;;;;;;;;;;;10331345;28;20029;-61
2022/09/01 01:34:21;;;;;;;2.10;1.63;;;;;;;;;;10366866;28;19928;-62
2022/09/01 01:39:27;;;;;;;4.15;1.70;;;;;;;;;;10367394;28;20026;-62
2022/09/01 01:44:28;;;;;;;1.83;1.67;;;;;;;;;;10364069;28;20117;-62
2022/09/01 01:49:29;;;;;;;2.80;1.90;;;;;;;;;;10367748;28;20030;-62
2022/09/01 01:54:31;;;;;;;4.28;1.90;;;;;;;;;;10363847;28;20026;-62
2022/09/01 01:59:32;;;;;;;1.80;1.70;;;;;;;;;;10368214;28;20492;-62
2022/09/01 02:04:33;;;;;;;2.05;1.70;;;;;;;;;;10370816;28;20486;-62
2022/09/01 02:09:33;;;;;;;2.42;1.60;;;;;;;;;;10371162;28;20052;-62
2022/09/01 02:14:34;;;;;;;4.00;1.52;;;;;;;;;;10372989;28;20101;-62
2022/09/01 02:19:42;;;;;;;1.50;1.38;;;;;;;;;;10381224;28;20128;-62
2022/09/01 02:24:47;;;;;;;2.33;1.67;;;;;;;;;;10374915;28;20030;-62
2022/09/01 02:29:53;;;;;;;7.95;1.52;;;;;;;;;;10365225;28;20045;-63
2022/09/01 02:35:00;;;;;;;4.07;1.40;;;;;;;;;;10364584;28;20041;-62
2022/09/01 02:40:00;;;;;;;2.67;1.33;;;;;;;;;;10363398;28;20044;-62
2022/09/01 02:45:01;;;;;;;4.35;1.63;;;;;;;;;;10355666;28;20033;-63
2022/09/01 02:50:02;;;;;;;3.65;1.98;;;;;;;;;;10383211;28;20505;-61
2022/09/01 02:55:04;;;;;;;5.28;1.67;;;;;;;;;;10364401;28;20032;-63
2022/09/01 03:00:19;;;;;;;2.47;1.77;;;;;;;;;;10372455;28;20036;-62
2022/09/01 03:05:25;;;;;;;4.00;1.40;;;;;;;;;;10382149;23;20116;-47
2022/09/01 03:10:40;;;;;;;1.83;1.40;;;;;;;;;;10390451;28;20108;-47
2022/09/01 03:15:41;;;;;;;3.45;1.77;;;;;;;;;;10362961;28;20026;-48
2022/09/01 03:20:49;;;;;;;6.55;1.55;;;;;;;;;;10339155;28;20091;-48
2022/09/01 03:25:51;;;;;;;2.30;1.35;;;;;;;;;;10341003;28;20124;-48
2022/09/01 03:30:56;;;;;;;2.80;1.65;;;;;;;;;;10336257;28;20467;-55
2022/09/01 03:35:57;;;;;;;3.22;1.25;;;;;;;;;;10333593;28;20026;-49
2022/09/01 03:41:02;;;;;;;18.77;2.25;;;;;;;;;;10336776;28;20034;-55
2022/09/01 03:46:02;;;;;;;4.38;1.60;;;;;;;;;;10345996;28;20132;-57
2022/09/01 03:51:03;;;;;;;3.92;1.48;;;;;;;;;;10363495;28;20037;-56
2022/09/01 03:56:05;;;;;;;7.38;1.25;;;;;;;;;;10349138;28;20427;-50
2022/09/01 04:01:05;;;;;;;3.42;1.40;;;;;;;;;;10363872;28;20056;-52
2022/09/01 04:06:09;;;;;;;2.47;1.35;;;;;;;;;;10371782;28;20052;-49
2022/09/01 04:11:17;;;;;;;2.05;1.25;;;;;;;;;;10357781;28;20500;-51
2022/09/01 04:21:49;;;;;;;3.30;1.60;;;;;;;;;;10370735;28;20277;-48
2022/09/01 04:26:51;;;;;;;3.25;1.33;;;;;;;;;;10369621;28;20042;-50
2022/09/01 04:32:08;;;;;;;3.63;1.20;;;;;;;;;;10369714;28;20030;-48
2022/09/01 04:37:17;;;;;;;1.30;1.20;;;;;;;;;;10366876;28;20056;-50
2022/09/01 04:42:22;;;;;;;2.50;1.40;;;;;;;;;;10363243;28;20462;-51
2022/09/01 04:47:28;;;;;;;2.33;1.30;;;;;;;;;;10366779;28;20026;-55
2022/09/01 04:52:30;;;;;;;1.92;1.40;;;;;;;;;;10363498;28;20544;-56
2022/09/01 04:57:31;;;;;;;1.30;1.20;;;;;;;;;;10362241;28;20026;-51
2022/09/01 05:02:31;;;;;;;9.50;1.30;;;;;;;;;;10366961;28;20041;-58
2022/09/01 05:07:32;;;;;;;6.53;1.58;;;;;;;;;;10367118;28;20092;-50
2022/09/01 05:12:34;;;;;;;5.95;1.30;;;;;;;;;;10349268;28;20022;-49
2022/09/01 05:17:37;;;;;;;3.35;1.45;;;;;;;;;;10364517;28;20064;-50
2022/09/01 05:22:39;;;;;;;11.05;1.30;;;;;;;;;;10360171;28;20121;-58
2022/09/01 05:27:50;;;;;;;19.73;2.03;;;;;;;;;;10366311;28;20084;-58
2022/09/01 05:32:53;;;;;;;3.53;1.50;;;;;;;;;;10367665;28;20044;-61
2022/09/01 05:37:54;;;;;;;18.00;1.70;;;;;;;;;;10367027;28;20038;-60
2022/09/01 05:42:55;;;;;;;7.78;1.55;;;;;;;;;;10366259;28;20096;-63
2022/09/01 05:47:57;;;;;;;5.97;1.40;;;;;;;;;;10366802;28;20034;-49
2022/09/01 05:52:57;;;;;;;4.35;1.20;;;;;;;;;;10359811;28;20117;-58
2022/09/01 05:57:58;;;;;;;5.55;1.50;;;;;;;;;;10355413;28;20162;-55
2022/09/01 06:03:01;;;;;;;4.50;1.25;;;;;;;;;;10361477;28;20038;-52
2022/09/01 06:08:04;;;;;;;3.45;1.30;;;;;;;;;;10334788;28;20300;-57
2022/09/01 06:13:07;;;;;;;5.20;1.10;;;;;;;;;;10341595;28;20088;-56
2022/09/01 06:18:11;;;;;;;1.98;1.30;;;;;;;;;;10352920;28;20029;-52
2022/09/01 06:23:16;;;;;;;4.57;1.23;;;;;;;;;;10343704;28;20113;-56
2022/09/01 06:28:20;;;;;;;2.03;1.30;;;;;;;;;;10366751;28;20060;-55
2022/09/01 06:33:23;;;;;;;3.40;1.35;;;;;;;;;;10357951;28;20470;-54
2022/09/01 06:38:25;;;;;;;2.53;1.02;;;;;;;;;;10366700;28;20386;-55
2022/09/01 06:43:29;;;;;;;3.63;1.20;;;;;;;;;;10366121;28;20151;-55
2022/09/01 06:48:30;;;;;;;2.45;1.50;;;;;;;;;;10366227;28;20030;-56
2022/09/01 06:53:33;;;;;;;2.85;1.00;;;;;;;;;;10357005;28;20080;-49
2022/09/01 06:58:33;;;;;;;2.83;1.20;;;;;;;;;;10351254;28;20026;-57
2022/09/01 07:03:35;;;;;;;6.63;1.35;;;;;;;;;;10358981;28;20092;-56
2022/09/01 07:08:38;;;;;;;4.22;1.55;;;;;;;;;;10352723;28;20070;-53
2022/09/01 07:13:39;;;;;;;5.47;1.65;;;;;;;;;;10355554;28;20116;-55
2022/09/01 07:18:39;;;;;;;2.03;1.15;;;;;;;;;;10353145;28;20488;-56
2022/09/01 07:23:42;;;;;;;5.78;1.23;;;;;;;;;;10326207;28;20470;-55
2022/09/01 07:28:49;;;;;;;3.75;1.42;;;;;;;;;;10365208;28;20022;-51
2022/09/01 07:33:53;;;;;;;6.32;1.25;;;;;;;;;;10365788;28;20517;-53
2022/09/01 07:38:54;;;;;;;11.30;1.88;;;;;;;;;;10369714;28;20037;-57
2022/09/01 07:43:55;;;;;;;13.30;2.38;;;;;;;;;;10372642;28;20045;-53
2022/09/01 07:48:56;;;;;;;24.75;4.03;;;;;;;;;;10371658;28;20554;-56
2022/09/01 07:53:57;;;;;;;17.33;2.75;;;;;;;;;;10369877;28;20038;-51
2022/09/01 07:58:58;;;;;;;13.55;2.47;;;;;;;;;;10356020;28;20026;-56
2022/09/01 08:04:01;;;;;;;13.90;2.47;;;;;;;;;;10352509;28;20505;-54
2022/09/01 08:09:01;;;;;;;10.52;1.55;;;;;;;;;;10356559;28;20041;-57
2022/09/01 08:14:02;;;;;;;10.65;2.15;;;;;;;;;;10366657;28;20029;-55
2022/09/01 08:19:03;;;;;;;9.27;1.50;;;;;;;;;;10371351;28;20033;-57
2022/09/01 08:24:04;;;;;;;18.00;2.90;;;;;;;;;;10356349;28;20037;-58
2022/09/01 08:29:05;;;;;;;22.40;2.60;;;;;;;;;;10370320;28;20049;-55
2022/09/01 08:34:05;;;;;;;36.90;5.40;;;;;;;;;;10350017;28;20086;-56
2022/09/01 08:39:06;;;;;;;32.00;3.17;;;;;;;;;;10368929;28;20030;-56
2022/09/01 08:45:13;;;;;;;15.88;3.00;;;;;;;;;;10369637;28;20486;-58
2022/09/01 08:50:14;;;;;;;20.63;2.50;;;;;;;;;;10200991;29;20094;-56
2022/09/01 08:55:43;;;;;;;22.35;2.90;;;;;;;;;;10204423;29;20527;-57
2022/09/01 09:00:52;;;;;;;11.38;1.83;;;;;;;;;;10182948;29;20046;-58
2022/09/01 09:06:18;;;;;;;9.25;1.63;;;;;;;;;;10201627;29;20055;-57
2022/09/01 09:11:44;;;;;;;10.30;2.00;;;;;;;;;;10203314;29;20043;-54
2022/09/01 09:16:53;;;;;;;19.90;2.58;;;;;;;;;;10181633;29;20039;-51
2022/09/01 09:21:57;;;;;;;42.00;5.25;;;;;;;;;;10264063;28;20492;-51
2022/09/01 09:26:58;;;;;;;29.95;3.95;;;;;;;;;;10368809;28;20033;-52
2022/09/01 09:32:09;;;;;;;19.00;3.20;;;;;;;;;;10367908;28;20390;-56
2022/09/01 09:37:30;;;;;;;16.45;2.03;;;;;;;;;;10366756;28;20030;-53
2022/09/01 09:42:30;;;;;;;15.98;2.08;;;;;;;;;;10367683;28;20042;-51
2022/09/01 09:47:38;;;;;;;15.65;2.10;;;;;;;;;;10367927;28;20440;-54
2022/09/01 09:52:39;;;;;;;10.75;1.90;;;;;;;;;;10365879;28;20032;-51
2022/09/01 09:57:40;;;;;;;8.10;1.83;;;;;;;;;;10355754;28;20470;-52
2022/09/01 10:02:50;;;;;;;5.90;1.45;;;;;;;;;;10341128;28;20482;-51
2022/09/01 10:07:53;;;;;;;7.38;1.88;;;;;;;;;;10353716;28;20093;-51
2022/09/01 10:12:55;;;;;;;4.60;1.45;;;;;;;;;;10361569;28;20029;-48
2022/09/01 10:18:18;;;;;;;6.05;1.20;;;;;;;;;;10344963;28;20084;-49
2022/09/01 10:23:19;;;;;;;3.78;1.02;;;;;;;;;;10339967;28;20034;-48
2022/09/01 10:28:23;;;;;;;1.77;1.00;;;;;;;;;;10362352;28;20044;-48
2022/09/01 10:33:24;;;;;;;2.60;1.05;;;;;;;;;;10339906;28;20117;-48
2022/09/01 10:38:28;;;;;;;3.17;0.90;;;;;;;;;;10365923;28;20038;-48
2022/09/01 10:43:37;;;;;;;1.70;0.90;;;;;;;;;;10359328;28;20089;-50
2022/09/01 10:48:38;;;;;;;2.25;1.00;;;;;;;;;;10364705;28;20060;-51
2022/09/01 10:53:43;;;;;;;1.45;0.75;;;;;;;;;;10366148;28;20030;-50
2022/09/01 10:59:25;;;;;;;3.03;0.95;;;;;;;;;;10364459;28;20108;-48
2022/09/01 11:04:28;;;;;;;1.98;0.90;;;;;;;;;;10357781;28;20505;-50
2022/09/01 11:09:38;;;;;;;0.85;0.70;;;;;;;;;;10365816;28;20038;-49
2022/09/01 11:14:58;;;;;;;0.88;0.85;;;;;;;;;;10342801;28;20038;-48
2022/09/01 11:20:21;;;;;;;0.80;0.68;;;;;;;;;;10365118;28;20390;-51
2022/09/01 11:25:43;;;;;;;0.85;0.60;;;;;;;;;;10369852;28;20390;-49
2022/09/01 11:30:57;;;;;;;3.40;0.90;;;;;;;;;;10370702;28;20045;-48
2022/09/01 11:36:12;;;;;;;1.45;0.80;;;;;;;;;;10352067;28;20034;-50
2022/09/01 11:41:24;;;;;;;2.00;0.70;;;;;;;;;;10366614;28;20528;-50
2022/09/01 11:46:33;;;;;;;1.00;0.60;;;;;;;;;;10371515;28;20166;-50
2022/09/01 11:51:52;;;;;;;2.15;0.70;;;;;;;;;;10371576;28;20073;-50
2022/09/01 11:56:52;;;;;;;1.15;0.80;;;;;;;;;;10367627;28;20025;-54
2022/09/01 12:01:57;;;;;;;1.85;0.63;;;;;;;;;;10370563;28;20389;-53
2022/09/01 12:07:09;;;;;;;1.75;0.70;;;;;;;;;;10363949;28;20069;-54
2022/09/01 12:12:38;;;;;;;0.90;0.73;;;;;;;;;;10370792;28;20045;-52
2022/09/01 12:17:39;;;;;;;2.75;0.80;;;;;;;;;;10366911;28;20373;-56
2022/09/01 12:22:41;;;;;;;2.22;0.80;;;;;;;;;;10369978;28;20053;-50
2022/09/01 12:27:42;;;;;;;2.63;0.63;;;;;;;;;;10377704;28;20025;-51
2022/09/01 12:32:43;;;;;;;5.78;0.93;;;;;;;;;;10365826;28;20118;-52
2022/09/01 12:37:44;;;;;;;3.30;0.90;;;;;;;;;;10351192;28;20474;-48
2022/09/01 12:42:51;;;;;;;2.72;1.02;;;;;;;;;;10369758;28;20494;-49
2022/09/01 12:47:51;;;;;;;5.35;0.90;;;;;;;;;;10370679;28;20034;-51
2022/09/01 12:53:00;;;;;;;0.98;0.73;;;;;;;;;;10368629;28;20030;-48
2022/09/01 12:58:05;;;;;;;3.65;1.00;;;;;;;;;;10340528;28;20041;-48
2022/09/01 13:03:16;;;;;;;6.00;0.93;;;;;;;;;;10341137;28;20390;-49
2022/09/01 13:08:27;;;;;;;2.65;1.20;;;;;;;;;;10365094;28;20049;-54
2022/09/01 13:13:29;;;;;;;1.02;0.73;;;;;;;;;;10362267;28;20460;-48
2022/09/01 13:18:29;;;;;;;0.82;0.65;;;;;;;;;;10368699;28;20046;-58
2022/09/01 13:23:31;;;;;;;2.50;0.73;;;;;;;;;;10368693;28;20489;-57
2022/09/01 13:28:32;;;;;;;5.32;0.90;;;;;;;;;;10365676;28;20177;-57
2022/09/01 13:33:35;;;;;;;4.00;0.73;;;;;;;;;;10372886;28;20028;-58
2022/09/01 13:38:36;;;;;;;284.00;20.90;;;;;;;;;;10383435;28;20036;-48
2022/09/01 13:43:37;;;;;;;42.30;3.78;;;;;;;;;;10370922;28;20025;-60
2022/09/01 13:48:37;;;;;;;23.08;2.83;;;;;;;;;;10374675;28;20084;-54
2022/09/01 13:53:38;;;;;;;38.80;3.20;;;;;;;;;;10372199;28;20084;-60
2022/09/01 13:58:49;;;;;;;50.83;4.65;;;;;;;;;;10479016;28;20120;-52
2022/09/01 14:03:50;;;;;;;19.02;2.65;;;;;;;;;;10455232;28;20381;-49
2022/09/01 14:08:51;;;;;;;22.60;2.50;;;;;;;;;;10466981;28;20028;-59
2022/09/01 14:13:51;;;;;;;10.23;2.03;;;;;;;;;;10452082;28;20020;-49
2022/09/01 14:18:52;;;;;;;15.93;2.50;;;;;;;;;;10442607;28;20056;-51
2022/09/01 14:23:52;;;;;;;5.97;1.40;;;;;;;;;;10451941;28;20079;-50
2022/09/01 14:28:53;;;;;;;6.43;1.30;;;;;;;;;;10452707;28;20373;-49
2022/09/01 14:33:54;;;;;;;6.85;1.35;;;;;;;;;;10450693;28;20434;-60
2022/09/01 14:38:54;;;;;;;5.67;1.50;;;;;;;;;;10445622;28;20041;-59
2022/09/01 14:43:57;;;;;;;6.57;1.30;;;;;;;;;;10445782;28;20469;-50
2022/09/01 14:48:59;;;;;;;4.00;1.40;;;;;;;;;;10444663;28;20037;-59
2022/09/01 14:54:00;;;;;;;8.93;1.25;;;;;;;;;;10441604;28;20192;-53
2022/09/01 14:59:00;;;;;;;8.03;1.73;;;;;;;;;;10447668;28;20119;-50
2022/09/01 15:04:01;;;;;;;5.88;1.50;;;;;;;;;;10456481;28;20041;-50
2022/09/01 15:09:02;;;;;;;8.70;1.73;;;;;;;;;;10442033;28;20032;-55
2022/09/01 15:14:03;;;;;;;7.57;1.92;;;;;;;;;;10412696;28;20029;-51
2022/09/01 15:19:08;;;;;;;14.95;2.00;;;;;;;;;;10415476;28;20025;-53
2022/09/01 15:24:09;;;;;;;9.30;1.88;;;;;;;;;;10418541;28;20041;-50
2022/09/01 15:29:11;;;;;;;9.32;2.00;;;;;;;;;;10414242;28;20021;-50
2022/09/01 15:34:12;;;;;;;15.20;2.85;;;;;;;;;;10408339;28;20025;-48
2022/09/01 15:39:13;;;;;;;16.92;2.85;;;;;;;;;;10403317;28;20026;-49
2022/09/01 15:44:13;;;;;;;11.55;2.90;;;;;;;;;;10402149;28;20036;-48
2022/09/01 15:49:14;;;;;;;14.13;2.53;;;;;;;;;;10401946;28;20083;-48
2022/09/01 15:54:17;;;;;;;20.27;3.88;;;;;;;;;;10408400;28;20513;-48
2022/09/01 15:59:18;;;;;;;13.50;2.88;;;;;;;;;;10430803;28;20033;-49
2022/09/01 16:04:18;;;;;;;13.60;2.37;;;;;;;;;;10421067;28;20033;-49
2022/09/01 16:09:22;;;;;;;20.52;3.67;;;;;;;;;;10419702;28;20469;-48
2022/09/01 16:14:22;;;;;;;12.55;2.55;;;;;;;;;;10410026;28;20033;-48
2022/09/01 16:19:32;;;;;;;12.37;2.63;;;;;;;;;;10416627;28;20025;-50
2022/09/01 16:24:52;;;;;;;8.70;2.15;;;;;;;;;;10411840;28;20466;-48
2022/09/01 16:30:05;;;;;;;8.07;2.10;;;;;;;;;;10417503;28;20034;-49
2022/09/01 16:35:05;;;;;;;8.50;2.03;;;;;;;;;;10397148;28;20064;-50
2022/09/01 16:40:14;;;;;;;6.53;1.95;;;;;;;;;;10404938;28;20033;-48
2022/09/01 16:45:50;;;;;;;6.85;1.90;;;;;;;;;;10416738;28;20079;-56
2022/09/01 16:51:01;;;;;;;5.25;1.88;;;;;;;;;;10405461;28;20025;-49
2022/09/01 16:56:22;;;;;;;5.32;1.58;;;;;;;;;;10416763;28;20052;-51
2022/09/01 17:01:34;;;;;;;5.50;1.75;;;;;;;;;;10419306;28;20055;-49
2022/09/01 17:06:46;;;;;;;6.63;1.60;;;;;;;;;;10413593;28;20030;-49
2022/09/01 17:12:16;;;;;;;7.70;1.92;;;;;;;;;;10416879;28;20039;-49
2022/09/01 17:17:21;;;;;;;7.68;1.88;;;;;;;;;;10386145;28;20469;-49
2022/09/01 17:22:23;;;;;;;6.43;2.00;;;;;;;;;;10407226;28;20120;-49
2022/09/01 17:28:00;;;;;;;5.90;1.65;;;;;;;;;;10406124;28;20121;-50
2022/09/01 17:33:14;;;;;;;5.05;1.52;;;;;;;;;;10394507;28;20497;-51
2022/09/01 17:38:27;;;;;;;4.55;1.70;;;;;;;;;;10409454;28;20036;-48
2022/09/01 17:43:32;;;;;;;7.38;1.67;;;;;;;;;;10406770;28;20110;-50
2022/09/01 17:48:53;;;;;;;4.07;1.30;;;;;;;;;;10419297;28;20103;-48
2022/09/01 17:53:56;;;;;;;4.32;1.55;;;;;;;;;;10399555;28;20037;-54
2022/09/01 17:59:22;;;;;;;4.13;1.42;;;;;;;;;;10413743;28;20470;-49
2022/09/01 18:04:41;;;;;;;7.45;1.58;;;;;;;;;;10402464;28;20042;-50
2022/09/01 18:09:48;;;;;;;3.75;1.60;;;;;;;;;;10416614;28;20029;-50
2022/09/01 18:14:55;;;;;;;2.53;1.80;;;;;;;;;;10401887;28;20068;-51
2022/09/01 18:20:11;;;;;;;4.53;1.75;;;;;;;;;;10415549;28;20033;-50
2022/09/01 18:25:39;;;;;;;2.58;1.73;;;;;;;;;;10428085;28;20048;-50
2022/09/01 18:30:56;;;;;;;;;;;;;;;;;;10410638;28;20037;-49
2022/09/01 18:36:27;;;;;;;5.50;1.63;;;;;;;;;;10396615;28;19971;-49
2022/09/01 18:41:46;;;;;;;2.60;1.27;;;;;;;;;;10404146;28;20614;-49
2022/09/01 18:47:07;;;;;;;4.40;1.30;;;;;;;;;;10423951;28;20461;-50
2022/09/01 18:52:23;;;;;;;2.17;1.40;;;;;;;;;;10424277;28;20063;-49
2022/09/01 18:57:35;;;;;;;3.75;1.27;;;;;;;;;;10419086;28;20048;-49
2022/09/01 19:02:58;;;;;;;5.25;1.42;;;;;;;;;;10418170;28;20033;-53
2022/09/01 19:08:20;;;;;;;5.22;1.38;;;;;;;;;;10412300;28;20096;-49
2022/09/01 19:13:43;;;;;;;1.65;1.45;;;;;;;;;;10412175;28;20047;-49
2022/09/01 19:18:49;;;;;;;6.78;1.83;;;;;;;;;;10436583;28;20037;-59
2022/09/01 19:24:00;;;;;;;2.72;1.40;;;;;;;;;;10425929;28;20180;-55
2022/09/01 19:29:06;;;;;;;4.53;1.73;;;;;;;;;;10401890;28;20279;-59
2022/09/01 19:34:19;;;;;;;7.75;1.85;;;;;;;;;;10407580;28;20168;-58
2022/09/01 19:39:26;;;;;;;16.33;1.73;;;;;;;;;;10397678;28;20366;-59
2022/09/01 19:44:38;;;;;;;7.40;1.98;;;;;;;;;;10412379;28;20403;-51
2022/09/01 19:49:55;;;;;;;5.50;1.88;;;;;;;;;;10387293;28;20540;-52
2022/09/01 19:55:02;;;;;;;4.15;1.70;;;;;;;;;;10390903;28;20046;-54
2022/09/01 20:00:12;;;;;;;3.75;1.60;;;;;;;;;;10405118;28;20096;-54
2022/09/01 20:05:13;;;;;;;6.95;1.58;;;;;;;;;;10401853;28;20069;-55
2022/09/01 20:10:13;;;;;;;6.97;1.80;;;;;;;;;;10403898;28;20595;-53
2022/09/01 20:15:20;;;;;;;5.83;1.60;;;;;;;;;;10407574;28;20083;-52
2022/09/01 20:20:28;;;;;;;1.90;1.40;;;;;;;;;;10400946;28;20484;-52
2022/09/01 20:25:36;;;;;;;5.43;1.43;;;;;;;;;;10400091;28;20151;-53
2022/09/01 20:30:49;;;;;;;1.95;1.40;;;;;;;;;;10399638;28;20469;-52
2022/09/01 20:35:59;;;;;;;2.47;1.70;;;;;;;;;;10395833;28;20037;-52
2022/09/01 20:41:06;;;;;;;8.85;1.40;;;;;;;;;;10401798;28;20034;-53
2022/09/01 20:46:07;;;;;;;3.08;1.35;;;;;;;;;;10394558;28;20508;-53
2022/09/01 20:51:15;;;;;;;4.07;1.40;;;;;;;;;;10392254;28;20130;-50
2022/09/01 20:56:28;;;;;;;3.15;1.60;;;;;;;;;;10394235;28;20493;-53
2022/09/01 21:02:03;;;;;;;3.40;1.45;;;;;;;;;;10385912;28;20025;-53
2022/09/01 21:07:38;;;;;;;3.72;1.77;;;;;;;;;;10390161;28;20033;-52
2022/09/01 21:13:17;;;;;;;4.72;1.73;;;;;;;;;;10390481;28;20038;-53
2022/09/01 21:18:17;;;;;;;5.63;1.55;;;;;;;;;;10386766;28;20091;-52
2022/09/01 21:23:19;;;;;;;3.37;1.47;;;;;;;;;;10379466;28;20026;-50
2022/09/01 21:28:20;;;;;;;3.70;1.67;;;;;;;;;;10387854;28;20037;-57
2022/09/01 21:33:21;;;;;;;6.47;1.50;;;;;;;;;;10390125;28;20377;-57
2022/09/01 21:38:22;;;;;;;6.03;1.85;;;;;;;;;;10381280;28;20034;-59
2022/09/01 21:43:27;;;;;;;2.97;1.57;;;;;;;;;;10385430;28;20038;-54
2022/09/01 21:48:29;;;;;;;1.35;1.15;;;;;;;;;;10388601;28;20567;-49
2022/09/01 21:53:31;;;;;;;13.48;2.50;;;;;;;;;;10402315;28;20050;-52
2022/09/01 21:58:31;;;;;;;5.07;1.73;;;;;;;;;;10403267;28;20045;-57
2022/09/01 22:03:33;;;;;;;4.57;2.00;;;;;;;;;;10415282;28;20021;-50
2022/09/01 22:08:33;;;;;;;3.10;1.80;;;;;;;;;;10405822;28;20091;-49
2022/09/01 22:13:34;;;;;;;5.60;1.60;;;;;;;;;;10427105;28;20354;-49
2022/09/01 22:18:34;;;;;;;6.15;1.92;;;;;;;;;;10398202;28;20033;-58
2022/09/01 22:23:35;;;;;;;4.43;1.87;;;;;;;;;;10408802;28;20021;-49
2022/09/01 22:28:36;;;;;;;5.03;1.70;;;;;;;;;;10414082;28;20033;-51
2022/09/01 22:33:36;;;;;;;5.00;2.10;;;;;;;;;;10409374;28;20389;-55
2022/09/01 22:38:36;;;;;;;2.47;1.67;;;;;;;;;;10397093;28;20476;-49
2022/09/01 22:43:37;;;;;;;3.27;1.53;;;;;;;;;;10409529;28;20079;-52
2022/09/01 22:48:37;;;;;;;4.90;1.70;;;;;;;;;;10408876;28;20033;-50
2022/09/01 22:53:39;;;;;;;5.90;1.60;;;;;;;;;;10405506;28;20026;-52
2022/09/01 22:58:41;;;;;;;3.72;2.03;;;;;;;;;;10405431;28;20080;-50
2022/09/01 23:03:42;;;;;;;4.85;1.60;;;;;;;;;;10425478;28;20036;-49
2022/09/01 23:08:43;;;;;;;3.03;1.40;;;;;;;;;;10415985;28;20127;-49
2022/09/01 23:13:44;;;;;;;3.83;1.60;;;;;;;;;;10414093;28;20056;-61
2022/09/01 23:18:46;;;;;;;15.97;2.80;;;;;;;;;;10400905;28;20033;-53
2022/09/01 23:23:46;;;;;;;17.25;2.20;;;;;;;;;;10416251;28;20116;-53
2022/09/01 23:28:47;;;;;;;15.80;1.55;;;;;;;;;;10411403;28;20108;-50
2022/09/01 23:33:47;;;;;;;11.02;1.67;;;;;;;;;;10416320;28;20032;-53
2022/09/01 23:38:49;;;;;;;6.33;1.60;;;;;;;;;;10415747;28;20037;-52
2022/09/01 23:43:50;;;;;;;9.30;1.52;;;;;;;;;;10414201;28;20499;-57
2022/09/01 23:48:52;;;;;;;8.20;1.90;;;;;;;;;;10413717;28;20032;-56
2022/09/01 23:53:52;;;;;;;15.45;1.40;;;;;;;;;;10411604;28;20030;-60
2022/09/01 23:58:53;;;;;;;4.50;1.70;;;;;;;;;;10413251;28;20041;-60
